Time;durP1;ratioP1;P1;durP2;ratioP2;P2;SDS_P1;SDS_P2;PMS_P1;PMS_P2;Temp;Humidity;BMP_temperature;BMP_pressure;BME280_temperature;BME280_humidity;BME280_pressure;Samples;Min_cycle;Max_cycle;Signal;HPM_P1;HPM_P2
2024/01/22 00:01:44;;;;;;;3.97;2.60;;;;;;;;;;5078787;28;20495;-62
2024/01/22 00:04:10;;;;;;;10.15;3.25;;;;;;;;;;5086105;28;20542;-63
2024/01/22 00:06:37;;;;;;;8.43;3.40;;;;;;;;;;5082347;28;20139;-63
2024/01/22 00:09:05;;;;;;;6.30;3.63;;;;;;;;;;5087704;28;20139;-62
2024/01/22 00:11:31;;;;;;;4.97;3.08;;;;;;;;;;5079131;28;20044;-62
2024/01/22 00:13:58;;;;;;;4.65;2.75;;;;;;;;;;5083703;28;20132;-61
2024/01/22 00:16:25;;;;;;;7.28;3.25;;;;;;;;;;5082239;28;20707;-63
2024/01/22 00:18:52;;;;;;;8.48;3.35;;;;;;;;;;5092038;28;20058;-63
2024/01/22 00:21:19;;;;;;;6.03;3.00;;;;;;;;;;5104797;28;20048;-63
2024/01/22 00:23:46;;;;;;;4.18;2.42;;;;;;;;;;5081549;28;20087;-62
2024/01/22 00:26:14;;;;;;;7.30;3.55;;;;;;;;;;5089544;28;20465;-62
2024/01/22 00:28:41;;;;;;;5.28;3.00;;;;;;;;;;5080733;28;20419;-62
2024/01/22 00:31:08;;;;;;;5.75;3.33;;;;;;;;;;5097486;28;20075;-62
2024/01/22 00:33:34;;;;;;;6.00;3.20;;;;;;;;;;5089030;28;20145;-66
2024/01/22 00:36:03;;;;;;;4.05;2.53;;;;;;;;;;5091100;28;20051;-62
2024/01/22 00:38:29;;;;;;;6.88;3.33;;;;;;;;;;5087536;28;20923;-62
2024/01/22 00:40:56;;;;;;;8.35;3.45;;;;;;;;;;5078716;28;20142;-62
2024/01/22 00:43:22;;;;;;;6.07;2.70;;;;;;;;;;5095608;28;20086;-62
2024/01/22 00:45:49;;;;;;;5.75;3.03;;;;;;;;;;5095000;28;20093;-65
2024/01/22 00:48:16;;;;;;;7.55;3.10;;;;;;;;;;5086618;28;20741;-62
2024/01/22 00:50:42;;;;;;;5.10;2.33;;;;;;;;;;5086583;28;20048;-65
2024/01/22 00:53:09;;;;;;;4.18;3.15;;;;;;;;;;5080511;28;20458;-62
2024/01/22 00:55:35;;;;;;;5.65;2.92;;;;;;;;;;5090142;28;20107;-62
2024/01/22 00:58:02;;;;;;;5.53;2.55;;;;;;;;;;5081080;28;20043;-61
2024/01/22 01:00:28;;;;;;;5.72;2.47;;;;;;;;;;5082471;28;20098;-62
2024/01/22 01:02:54;;;;;;;7.75;2.92;;;;;;;;;;5070314;28;20105;-63
2024/01/22 01:05:21;;;;;;;9.07;3.70;;;;;;;;;;5080767;28;20384;-62
2024/01/22 01:07:47;;;;;;;5.72;2.95;;;;;;;;;;5084176;28;20499;-64
2024/01/22 01:10:14;;;;;;;8.77;3.30;;;;;;;;;;5083052;28;20138;-63
2024/01/22 01:12:40;;;;;;;5.93;2.83;;;;;;;;;;5075823;28;20048;-64
2024/01/22 01:15:07;;;;;;;3.47;2.42;;;;;;;;;;5084941;28;20040;-66
2024/01/22 01:17:34;;;;;;;4.45;2.80;;;;;;;;;;5083768;28;20088;-65
2024/01/22 01:20:00;;;;;;;6.65;2.72;;;;;;;;;;5093375;28;20039;-64
2024/01/22 01:22:26;;;;;;;5.60;2.58;;;;;;;;;;5092982;28;20054;-63
2024/01/22 01:24:53;;;;;;;8.90;3.30;;;;;;;;;;5082333;28;20575;-65
2024/01/22 01:27:20;;;;;;;5.03;1.88;;;;;;;;;;5081686;28;20047;-65
2024/01/22 01:29:46;;;;;;;5.35;2.55;;;;;;;;;;5095273;28;20062;-63
2024/01/22 01:32:13;;;;;;;4.75;2.45;;;;;;;;;;5057301;28;21203;-65
2024/01/22 01:34:39;;;;;;;5.20;2.65;;;;;;;;;;5069542;28;20085;-66
2024/01/22 01:37:06;;;;;;;5.05;2.70;;;;;;;;;;5083531;28;20064;-65
2024/01/22 01:39:32;;;;;;;6.22;3.08;;;;;;;;;;5070754;28;20060;-65
2024/01/22 01:41:59;;;;;;;5.70;2.92;;;;;;;;;;5076230;28;20572;-64
2024/01/22 01:44:52;;;;;;;4.85;2.50;;;;;;;;;;5081001;28;20139;-66
2024/01/22 01:47:18;;;;;;;5.30;2.75;;;;;;;;;;5072571;28;20048;-64
2024/01/22 01:49:46;;;;;;;5.90;2.78;;;;;;;;;;5071872;28;20040;-67
2024/01/22 01:52:12;;;;;;;5.13;2.58;;;;;;;;;;5074851;28;20608;-63
2024/01/22 01:54:40;;;;;;;4.82;2.60;;;;;;;;;;5080284;28;20040;-63
2024/01/22 01:57:07;;;;;;;3.83;2.08;;;;;;;;;;5077482;28;20167;-63
2024/01/22 01:59:37;;;;;;;5.75;2.85;;;;;;;;;;5089724;28;20059;-65
2024/01/22 02:02:03;;;;;;;7.03;3.55;;;;;;;;;;5081961;28;20058;-64
2024/01/22 02:04:30;;;;;;;6.50;2.65;;;;;;;;;;5073169;28;20116;-64
2024/01/22 02:06:57;;;;;;;6.97;2.70;;;;;;;;;;5080499;28;20051;-66
2024/01/22 02:09:43;;;;;;;4.13;2.20;;;;;;;;;;5075986;28;20508;-65
2024/01/22 02:12:10;;;;;;;5.72;2.47;;;;;;;;;;5077043;28;20050;-63
2024/01/22 02:14:36;;;;;;;5.97;2.40;;;;;;;;;;5082542;28;20056;-66
2024/01/22 02:17:03;;;;;;;5.50;2.50;;;;;;;;;;5098689;28;20135;-65
2024/01/22 02:19:30;;;;;;;4.65;2.35;;;;;;;;;;5084301;28;20752;-66
2024/01/22 02:21:56;;;;;;;5.75;2.50;;;;;;;;;;5079303;28;20044;-63
2024/01/22 02:24:23;;;;;;;7.60;2.85;;;;;;;;;;5092632;28;20075;-63
2024/01/22 02:26:50;;;;;;;4.40;2.50;;;;;;;;;;5078906;28;20368;-63
2024/01/22 02:29:17;;;;;;;5.90;2.70;;;;;;;;;;5085383;28;20478;-63
2024/01/22 02:31:45;;;;;;;3.65;2.30;;;;;;;;;;5077121;28;20074;-64
2024/01/22 02:34:12;;;;;;;4.47;1.75;;;;;;;;;;5081570;28;20047;-64
2024/01/22 02:36:38;;;;;;;5.57;2.38;;;;;;;;;;5093745;28;20078;-63
2024/01/22 02:39:05;;;;;;;3.80;2.00;;;;;;;;;;5078958;28;20101;-64
2024/01/22 02:41:31;;;;;;;3.30;1.90;;;;;;;;;;5079875;28;20690;-66
2024/01/22 02:43:57;;;;;;;4.18;2.22;;;;;;;;;;5088247;28;20136;-64
2024/01/22 02:46:27;;;;;;;3.88;2.00;;;;;;;;;;5081565;28;20044;-65
2024/01/22 02:48:53;;;;;;;2.33;1.65;;;;;;;;;;5079741;28;20124;-65
2024/01/22 02:51:20;;;;;;;4.05;1.70;;;;;;;;;;5088785;28;20678;-64
2024/01/22 02:53:47;;;;;;;4.68;1.90;;;;;;;;;;5088271;28;20676;-66
2024/01/22 02:56:17;;;;;;;5.38;2.00;;;;;;;;;;5074033;28;20876;-66
2024/01/22 02:58:44;;;;;;;5.32;1.80;;;;;;;;;;5086984;28;20058;-66
2024/01/22 03:01:10;;;;;;;4.05;2.17;;;;;;;;;;5073390;28;20063;-64
2024/01/22 03:03:37;;;;;;;4.95;1.83;;;;;;;;;;5076636;28;20047;-64
2024/01/22 03:06:03;;;;;;;5.28;2.25;;;;;;;;;;5094805;28;20148;-66
2024/01/22 03:08:30;;;;;;;3.65;2.35;;;;;;;;;;5078266;28;20661;-65
2024/01/22 03:10:56;;;;;;;4.43;2.28;;;;;;;;;;5083359;28;20044;-68
2024/01/22 03:13:23;;;;;;;4.20;1.92;;;;;;;;;;5091940;28;20043;-66
2024/01/22 03:15:49;;;;;;;3.28;2.15;;;;;;;;;;5090999;28;20051;-66
2024/01/22 03:18:16;;;;;;;2.45;1.85;;;;;;;;;;5081426;28;20106;-66
2024/01/22 03:20:42;;;;;;;2.65;1.52;;;;;;;;;;5058377;28;20055;-66
2024/01/22 03:23:09;;;;;;;4.18;2.08;;;;;;;;;;5083331;28;20048;-66
2024/01/22 03:25:35;;;;;;;4.47;2.42;;;;;;;;;;5077977;28;20055;-66
2024/01/22 03:28:02;;;;;;;4.85;2.15;;;;;;;;;;5063201;28;20196;-64
2024/01/22 03:30:28;;;;;;;4.45;1.95;;;;;;;;;;5079115;28;20064;-65
2024/01/22 03:32:54;;;;;;;3.75;1.90;;;;;;;;;;5099973;28;20044;-65
2024/01/22 03:35:21;;;;;;;3.08;1.77;;;;;;;;;;5087409;28;20603;-66
2024/01/22 03:37:48;;;;;;;4.00;2.20;;;;;;;;;;5081591;28;20791;-64
2024/01/22 03:40:14;;;;;;;3.92;2.00;;;;;;;;;;5088570;28;20047;-65
2024/01/22 03:42:41;;;;;;;3.17;1.77;;;;;;;;;;5078129;28;20048;-65
2024/01/22 03:45:07;;;;;;;3.85;2.05;;;;;;;;;;5083732;28;20546;-65
2024/01/22 03:47:34;;;;;;;3.72;1.90;;;;;;;;;;5083136;28;20084;-67
2024/01/22 03:50:03;;;;;;;2.88;1.70;;;;;;;;;;5086797;28;20461;-65
2024/01/22 03:52:29;;;;;;;3.25;1.80;;;;;;;;;;5091475;28;20067;-68
2024/01/22 03:54:56;;;;;;;3.63;1.83;;;;;;;;;;5080614;28;20742;-64
2024/01/22 03:57:22;;;;;;;3.53;1.92;;;;;;;;;;5083738;28;20055;-65
2024/01/22 03:59:49;;;;;;;5.00;2.13;;;;;;;;;;5087031;28;20043;-64
2024/01/22 04:02:15;;;;;;;3.78;2.13;;;;;;;;;;5095052;28;20680;-68
2024/01/22 04:04:42;;;;;;;3.65;2.22;;;;;;;;;;5087193;28;20126;-67
2024/01/22 04:07:08;;;;;;;4.32;2.20;;;;;;;;;;5082000;28;20788;-69
2024/01/22 04:09:36;;;;;;;4.35;2.20;;;;;;;;;;5087324;28;20087;-68
2024/01/22 04:12:03;;;;;;;3.47;2.15;;;;;;;;;;5066608;28;20044;-68
2024/01/22 04:14:30;;;;;;;3.15;2.15;;;;;;;;;;5088438;28;20495;-67
2024/01/22 04:16:56;;;;;;;3.90;2.28;;;;;;;;;;5067418;28;20079;-68
2024/01/22 04:19:23;;;;;;;3.25;1.90;;;;;;;;;;5077759;28;20412;-66
2024/01/22 04:21:49;;;;;;;4.07;2.00;;;;;;;;;;5080278;28;20071;-67
2024/01/22 04:24:17;;;;;;;2.75;2.00;;;;;;;;;;5078546;28;20091;-66
2024/01/22 04:26:43;;;;;;;1.98;1.63;;;;;;;;;;5087366;28;20051;-66
2024/01/22 04:29:10;;;;;;;2.42;1.60;;;;;;;;;;5096971;28;20418;-66
2024/01/22 04:31:36;;;;;;;4.55;1.60;;;;;;;;;;5095343;28;20058;-66
2024/01/22 04:34:03;;;;;;;3.20;1.70;;;;;;;;;;5077694;28;20059;-66
2024/01/22 04:36:30;;;;;;;3.50;1.80;;;;;;;;;;5090607;28;20066;-67
2024/01/22 04:38:56;;;;;;;4.30;1.77;;;;;;;;;;5077612;28;20090;-66
2024/01/22 04:41:23;;;;;;;3.60;1.70;;;;;;;;;;5071354;28;20049;-64
2024/01/22 04:43:49;;;;;;;4.35;1.50;;;;;;;;;;5083863;28;20056;-65
2024/01/22 04:46:15;;;;;;;3.35;1.70;;;;;;;;;;5080168;28;20486;-65
2024/01/22 04:48:42;;;;;;;2.30;1.38;;;;;;;;;;5086368;28;20457;-65
2024/01/22 04:51:09;;;;;;;3.15;1.70;;;;;;;;;;5085983;28;21023;-65
2024/01/22 04:53:36;;;;;;;2.67;1.80;;;;;;;;;;5084524;28;20050;-64
2024/01/22 04:56:02;;;;;;;2.90;1.40;;;;;;;;;;5082131;28;20044;-66
2024/01/22 04:58:29;;;;;;;3.95;1.60;;;;;;;;;;5082883;28;20522;-67
2024/01/22 05:00:55;;;;;;;2.15;1.60;;;;;;;;;;5101092;28;20075;-64
2024/01/22 05:03:23;;;;;;;3.08;1.70;;;;;;;;;;5086974;28;20052;-64
2024/01/22 05:05:50;;;;;;;4.00;1.52;;;;;;;;;;5081061;28;20051;-64
2024/01/22 05:08:17;;;;;;;3.70;1.55;;;;;;;;;;5076220;28;20064;-66
2024/01/22 05:10:43;;;;;;;4.35;1.80;;;;;;;;;;5081200;28;20480;-65
2024/01/22 05:13:09;;;;;;;3.70;1.77;;;;;;;;;;5090730;28;20117;-67
2024/01/22 05:15:36;;;;;;;1.50;1.30;;;;;;;;;;5053486;28;20054;-66
2024/01/22 05:18:02;;;;;;;2.35;1.33;;;;;;;;;;5094435;28;20101;-64
2024/01/22 05:20:29;;;;;;;3.00;1.60;;;;;;;;;;5083736;28;20146;-67
2024/01/22 05:22:55;;;;;;;3.10;1.73;;;;;;;;;;5075344;28;20055;-65
2024/01/22 05:25:22;;;;;;;2.55;1.40;;;;;;;;;;5085057;28;20163;-65
2024/01/22 05:27:48;;;;;;;3.63;1.30;;;;;;;;;;5084140;28;20528;-64
2024/01/22 05:30:14;;;;;;;3.35;1.60;;;;;;;;;;5075826;28;20056;-66
2024/01/22 05:32:41;;;;;;;2.40;1.20;;;;;;;;;;5076707;28;20055;-65
2024/01/22 05:35:08;;;;;;;2.97;1.30;;;;;;;;;;5081656;28;20888;-67
2024/01/22 05:37:34;;;;;;;3.00;1.50;;;;;;;;;;5080573;28;20050;-65
2024/01/22 05:40:00;;;;;;;2.28;1.05;;;;;;;;;;5082503;28;20101;-67
2024/01/22 05:42:27;;;;;;;2.53;1.45;;;;;;;;;;5084569;28;20051;-67
2024/01/22 05:44:53;;;;;;;2.53;1.55;;;;;;;;;;5078122;28;20054;-66
2024/01/22 05:47:20;;;;;;;2.58;1.10;;;;;;;;;;5084410;28;20054;-66
2024/01/22 05:49:46;;;;;;;5.05;1.27;;;;;;;;;;5073318;28;20044;-66
2024/01/22 05:52:12;;;;;;;3.38;1.30;;;;;;;;;;5085493;28;20150;-65
2024/01/22 05:54:40;;;;;;;2.83;1.15;;;;;;;;;;5099354;28;20400;-65
2024/01/22 05:57:06;;;;;;;3.30;1.30;;;;;;;;;;5084108;28;20059;-64
2024/01/22 05:59:33;;;;;;;1.52;1.00;;;;;;;;;;5093684;28;20461;-66
2024/01/22 06:01:59;;;;;;;4.50;1.27;;;;;;;;;;5085467;28;20055;-66
2024/01/22 06:04:26;;;;;;;3.17;1.33;;;;;;;;;;5074352;28;20138;-64
2024/01/22 06:06:52;;;;;;;1.63;0.90;;;;;;;;;;5081179;28;20052;-64
2024/01/22 06:09:19;;;;;;;2.20;1.00;;;;;;;;;;5078633;28;20105;-64
2024/01/22 06:11:45;;;;;;;2.25;1.10;;;;;;;;;;5080063;28;20047;-65
2024/01/22 06:14:12;;;;;;;3.55;1.02;;;;;;;;;;5079509;28;20051;-65
2024/01/22 06:16:38;;;;;;;1.42;0.85;;;;;;;;;;5097787;28;20147;-66
2024/01/22 06:19:04;;;;;;;3.03;0.68;;;;;;;;;;5075685;28;20437;-65
2024/01/22 06:21:31;;;;;;;1.95;0.80;;;;;;;;;;5082591;28;20052;-64
2024/01/22 06:23:58;;;;;;;1.98;0.80;;;;;;;;;;5095137;28;20050;-65
2024/01/22 06:26:24;;;;;;;3.22;1.02;;;;;;;;;;5061551;28;20059;-65
2024/01/22 06:28:52;;;;;;;3.28;0.95;;;;;;;;;;5088532;28;20449;-65
2024/01/22 06:31:19;;;;;;;1.63;0.95;;;;;;;;;;5080691;28;20680;-65
2024/01/22 06:33:45;;;;;;;2.10;0.80;;;;;;;;;;5078871;28;20104;-64
2024/01/22 06:36:12;;;;;;;2.85;1.10;;;;;;;;;;5092324;28;20195;-65
2024/01/22 06:38:38;;;;;;;2.40;0.90;;;;;;;;;;5089848;28;20059;-66
2024/01/22 06:41:11;;;;;;;2.45;0.90;;;;;;;;;;5090201;28;20050;-65
2024/01/22 06:43:38;;;;;;;2.30;0.93;;;;;;;;;;5078152;28;20080;-65
2024/01/22 06:46:05;;;;;;;5.88;0.98;;;;;;;;;;5084655;28;20043;-63
2024/01/22 06:48:31;;;;;;;4.70;1.08;;;;;;;;;;5083496;28;20753;-64
2024/01/22 06:50:57;;;;;;;1.10;0.70;;;;;;;;;;5088296;28;20048;-64
2024/01/22 06:53:24;;;;;;;2.97;0.93;;;;;;;;;;5093088;28;20046;-65
2024/01/22 06:55:51;;;;;;;2.65;1.05;;;;;;;;;;5080313;28;20048;-64
2024/01/22 06:58:17;;;;;;;3.67;1.10;;;;;;;;;;5088514;28;20525;-64
2024/01/22 07:00:44;;;;;;;2.33;1.00;;;;;;;;;;5072389;28;20047;-66
2024/01/22 07:03:12;;;;;;;2.58;0.95;;;;;;;;;;5090692;28;20431;-64
2024/01/22 07:05:38;;;;;;;5.65;1.35;;;;;;;;;;5083806;28;20174;-65
2024/01/22 07:08:05;;;;;;;2.78;0.85;;;;;;;;;;5078709;28;20532;-65
2024/01/22 07:10:33;;;;;;;2.58;0.90;;;;;;;;;;5062007;28;20682;-64
2024/01/22 07:12:59;;;;;;;1.95;0.85;;;;;;;;;;5061335;28;20129;-65
2024/01/22 07:15:25;;;;;;;3.88;1.27;;;;;;;;;;5085641;28;20909;-63
2024/01/22 07:17:52;;;;;;;4.93;1.00;;;;;;;;;;5090896;28;20055;-65
2024/01/22 07:20:19;;;;;;;6.28;1.15;;;;;;;;;;5088448;28;20055;-63
2024/01/22 07:22:45;;;;;;;2.17;1.00;;;;;;;;;;5095310;28;20105;-64
2024/01/22 07:25:15;;;;;;;3.97;1.10;;;;;;;;;;5084110;28;20058;-65
2024/01/22 07:27:44;;;;;;;12.85;1.58;;;;;;;;;;5095329;28;20738;-66
2024/01/22 07:30:12;;;;;;;4.20;1.00;;;;;;;;;;5083627;28;20044;-64
2024/01/22 07:32:40;;;;;;;3.55;0.90;;;;;;;;;;5089044;28;20780;-67
2024/01/22 07:35:08;;;;;;;4.07;0.90;;;;;;;;;;5089986;28;20048;-64
2024/01/22 07:37:44;;;;;;;4.05;1.00;;;;;;;;;;5086639;28;20095;-65
2024/01/22 07:40:12;;;;;;;6.05;1.40;;;;;;;;;;5073872;28;20040;-64
2024/01/22 07:42:39;;;;;;;8.50;1.35;;;;;;;;;;5082998;28;20613;-63
2024/01/22 07:45:06;;;;;;;7.80;1.38;;;;;;;;;;5090260;28;20067;-65
2024/01/22 07:47:33;;;;;;;9.57;1.52;;;;;;;;;;5088235;28;20044;-64
2024/01/22 07:50:01;;;;;;;4.10;1.15;;;;;;;;;;5090229;28;20079;-64
2024/01/22 07:52:27;;;;;;;8.18;1.70;;;;;;;;;;5094458;28;20045;-64
2024/01/22 07:54:54;;;;;;;4.85;0.95;;;;;;;;;;5099544;28;20043;-64
2024/01/22 07:57:21;;;;;;;7.07;1.15;;;;;;;;;;5101914;28;20047;-64
2024/01/22 07:59:47;;;;;;;5.55;1.27;;;;;;;;;;5084209;28;20523;-64
2024/01/22 08:02:14;;;;;;;4.53;1.23;;;;;;;;;;5095584;28;20048;-63
2024/01/22 08:04:41;;;;;;;9.07;2.33;;;;;;;;;;5067376;28;20472;-64
2024/01/22 08:07:07;;;;;;;10.18;1.58;;;;;;;;;;5082618;28;20048;-64
2024/01/22 08:09:34;;;;;;;7.85;1.50;;;;;;;;;;5087750;28;20090;-64
2024/01/22 08:12:00;;;;;;;7.50;1.23;;;;;;;;;;5084688;28;20062;-64
2024/01/22 08:14:27;;;;;;;7.82;1.80;;;;;;;;;;5069770;28;20053;-66
2024/01/22 08:16:54;;;;;;;9.15;1.60;;;;;;;;;;5076029;28;20126;-64
2024/01/22 08:19:20;;;;;;;11.15;1.60;;;;;;;;;;5084331;28;20117;-65
2024/01/22 08:21:47;;;;;;;10.90;2.95;;;;;;;;;;5069100;28;20393;-67
2024/01/22 08:24:13;;;;;;;11.40;1.90;;;;;;;;;;5084835;28;20040;-65
2024/01/22 08:26:40;;;;;;;9.65;1.75;;;;;;;;;;5082159;28;20059;-65
2024/01/22 08:29:07;;;;;;;8.23;1.88;;;;;;;;;;5084041;28;20048;-63
2024/01/22 08:31:33;;;;;;;10.52;2.40;;;;;;;;;;5088349;28;20239;-64
2024/01/22 08:34:00;;;;;;;8.18;1.90;;;;;;;;;;5080325;28;20058;-65
2024/01/22 08:36:27;;;;;;;9.13;1.90;;;;;;;;;;5085339;28;20055;-64
2024/01/22 08:38:54;;;;;;;6.75;1.60;;;;;;;;;;5094792;28;20048;-64
2024/01/22 08:41:26;;;;;;;6.95;1.30;;;;;;;;;;5082179;28;20044;-64
2024/01/22 08:43:56;;;;;;;10.27;1.63;;;;;;;;;;5095363;28;20084;-64
2024/01/22 08:46:25;;;;;;;8.32;1.85;;;;;;;;;;5082073;28;20055;-66
2024/01/22 08:48:52;;;;;;;9.90;1.60;;;;;;;;;;5083750;28;20472;-64
2024/01/22 08:51:18;;;;;;;9.05;1.98;;;;;;;;;;5081452;28;20063;-63
2024/01/22 08:53:45;;;;;;;8.23;2.08;;;;;;;;;;5101540;28;20047;-64
2024/01/22 08:56:13;;;;;;;9.23;1.73;;;;;;;;;;5077708;28;20149;-65
2024/01/22 08:58:39;;;;;;;8.17;1.77;;;;;;;;;;5080814;28;20060;-65
2024/01/22 09:01:06;;;;;;;10.75;2.50;;;;;;;;;;5092890;28;20117;-65
2024/01/22 09:03:36;;;;;;;8.13;1.65;;;;;;;;;;5079624;28;20044;-66
2024/01/22 09:06:06;;;;;;;11.75;2.42;;;;;;;;;;5088162;28;20044;-64
2024/01/22 09:08:36;;;;;;;10.70;2.03;;;;;;;;;;5088550;28;20641;-64
2024/01/22 09:11:02;;;;;;;9.50;1.73;;;;;;;;;;5090201;28;20108;-64
2024/01/22 09:13:29;;;;;;;8.77;1.70;;;;;;;;;;5095716;28;20088;-64
2024/01/22 09:15:57;;;;;;;10.60;2.10;;;;;;;;;;5076866;28;20048;-64
2024/01/22 09:18:24;;;;;;;6.95;1.58;;;;;;;;;;5082728;28;20042;-64
2024/01/22 09:20:51;;;;;;;11.27;2.30;;;;;;;;;;5084582;28;20048;-64
2024/01/22 09:23:17;;;;;;;9.68;2.17;;;;;;;;;;5088521;28;20392;-65
2024/01/22 09:25:44;;;;;;;6.35;1.40;;;;;;;;;;5091184;28;20040;-65
2024/01/22 09:28:13;;;;;;;10.93;2.28;;;;;;;;;;5084714;28;20054;-66
2024/01/22 09:30:40;;;;;;;8.27;2.20;;;;;;;;;;5088439;28;20050;-67
2024/01/22 09:33:09;;;;;;;12.05;2.00;;;;;;;;;;5076257;28;20443;-67
2024/01/22 09:35:37;;;;;;;9.40;1.98;;;;;;;;;;5088770;28;20126;-68
2024/01/22 09:38:04;;;;;;;14.33;2.53;;;;;;;;;;5085656;28;20075;-66
2024/01/22 09:40:32;;;;;;;10.02;2.20;;;;;;;;;;5086227;28;20055;-68
2024/01/22 09:43:03;;;;;;;8.45;2.05;;;;;;;;;;5086667;28;20109;-67
2024/01/22 09:45:31;;;;;;;11.77;1.90;;;;;;;;;;5073519;28;22059;-66
2024/01/22 09:47:57;;;;;;;11.75;2.42;;;;;;;;;;5091961;28;20048;-73
2024/01/22 09:50:25;;;;;;;13.73;1.90;;;;;;;;;;5083250;28;20051;-74
2024/01/22 09:52:54;;;;;;;8.38;1.67;;;;;;;;;;5086785;28;20462;-72
2024/01/22 09:55:21;;;;;;;12.65;1.92;;;;;;;;;;5069573;28;20051;-71
2024/01/22 09:57:50;;;;;;;8.70;1.70;;;;;;;;;;5082148;28;20075;-69
2024/01/22 10:00:18;;;;;;;5.03;1.17;;;;;;;;;;5085873;28;20093;-69
2024/01/22 10:02:44;;;;;;;9.15;1.23;;;;;;;;;;5089871;28;20040;-70
2024/01/22 10:05:11;;;;;;;9.55;1.58;;;;;;;;;;5085998;28;20044;-69
2024/01/22 10:07:38;;;;;;;8.90;1.55;;;;;;;;;;5067467;28;20067;-70
2024/01/22 10:10:04;;;;;;;9.38;2.08;;;;;;;;;;5085261;28;20063;-70
2024/01/22 10:12:50;;;;;;;11.60;2.17;;;;;;;;;;5077971;28;20181;-70
2024/01/22 10:15:17;;;;;;;12.07;1.90;;;;;;;;;;5082312;28;20089;-70
2024/01/22 10:17:44;;;;;;;9.63;1.83;;;;;;;;;;5084625;28;20059;-71
2024/01/22 10:20:11;;;;;;;6.10;1.45;;;;;;;;;;5079418;28;20555;-69
2024/01/22 10:22:37;;;;;;;11.60;2.67;;;;;;;;;;5066463;28;20052;-69
2024/01/22 10:25:04;;;;;;;10.90;1.92;;;;;;;;;;5053588;28;20767;-67
2024/01/22 10:27:30;;;;;;;13.75;2.40;;;;;;;;;;5082178;28;20543;-68
2024/01/22 10:30:09;;;;;;;17.45;2.28;;;;;;;;;;5080407;28;20072;-68
2024/01/22 10:32:36;;;;;;;10.70;2.22;;;;;;;;;;5083918;28;20127;-67
2024/01/22 10:35:03;;;;;;;10.63;2.28;;;;;;;;;;5062297;28;20047;-67
2024/01/22 10:37:31;;;;;;;12.32;1.95;;;;;;;;;;5081282;28;20052;-68
2024/01/22 10:40:01;;;;;;;11.07;2.33;;;;;;;;;;5080119;28;20143;-67
2024/01/22 10:42:27;;;;;;;13.50;2.10;;;;;;;;;;5083499;28;20059;-68
2024/01/22 10:44:55;;;;;;;17.45;1.77;;;;;;;;;;5087066;28;20039;-73
2024/01/22 10:47:22;;;;;;;10.18;2.00;;;;;;;;;;5085931;28;20052;-71
2024/01/22 10:49:51;;;;;;;11.73;1.83;;;;;;;;;;5089343;28;20055;-72
2024/01/22 10:52:19;;;;;;;12.80;2.15;;;;;;;;;;5088844;28;20044;-71
2024/01/22 10:54:45;;;;;;;13.60;1.97;;;;;;;;;;5078490;28;20078;-71
2024/01/22 10:57:16;;;;;;;17.38;3.50;;;;;;;;;;5096079;28;20506;-71
2024/01/22 10:59:46;;;;;;;9.85;1.83;;;;;;;;;;5088177;28;20482;-72
2024/01/22 11:02:16;;;;;;;11.10;2.65;;;;;;;;;;5089842;28;20048;-72
2024/01/22 11:04:43;;;;;;;10.50;1.80;;;;;;;;;;5085429;28;20092;-72
2024/01/22 11:07:11;;;;;;;16.88;2.35;;;;;;;;;;5086401;28;20522;-72
2024/01/22 11:09:39;;;;;;;20.17;2.92;;;;;;;;;;5091267;28;20126;-72
2024/01/22 11:12:09;;;;;;;17.08;3.05;;;;;;;;;;5089018;28;20055;-70
2024/01/22 11:14:37;;;;;;;14.43;2.65;;;;;;;;;;5071026;28;20090;-72
2024/01/22 11:17:08;;;;;;;19.73;3.10;;;;;;;;;;5067450;28;20155;-72
2024/01/22 11:19:36;;;;;;;19.70;2.45;;;;;;;;;;5069224;28;20052;-71
2024/01/22 11:22:22;;;;;;;15.82;2.92;;;;;;;;;;5085545;28;20136;-71
2024/01/22 11:25:09;;;;;;;21.30;3.65;;;;;;;;;;5075862;28;20044;-71
2024/01/22 11:27:42;;;;;;;22.80;3.58;;;;;;;;;;5081446;28;20059;-70
2024/01/22 11:30:24;;;;;;;22.95;3.38;;;;;;;;;;5083869;28;20047;-70
2024/01/22 11:32:51;;;;;;;23.05;4.78;;;;;;;;;;5084663;28;20423;-72
2024/01/22 11:35:38;;;;;;;19.92;2.90;;;;;;;;;;5087580;28;20117;-72
2024/01/22 11:38:05;;;;;;;13.95;2.70;;;;;;;;;;5084555;28;20388;-71
2024/01/22 11:40:48;;;;;;;27.65;3.35;;;;;;;;;;5075394;28;20125;-68
2024/01/22 11:43:16;;;;;;;24.92;3.90;;;;;;;;;;5087298;28;20044;-69
2024/01/22 11:45:43;;;;;;;17.38;2.83;;;;;;;;;;5070674;28;20128;-70
2024/01/22 11:48:19;;;;;;;19.95;2.97;;;;;;;;;;5061166;28;20051;-70
2024/01/22 11:50:58;;;;;;;17.88;3.90;;;;;;;;;;5087263;28;20094;-70
2024/01/22 11:53:26;;;;;;;20.77;3.28;;;;;;;;;;5082186;28;20515;-69
2024/01/22 11:56:00;;;;;;;28.10;3.78;;;;;;;;;;5080829;28;20051;-67
2024/01/22 11:58:28;;;;;;;26.20;3.63;;;;;;;;;;5081936;28;20605;-69
2024/01/22 12:00:55;;;;;;;23.42;3.60;;;;;;;;;;5066379;28;20047;-67
2024/01/22 12:03:25;;;;;;;24.45;3.80;;;;;;;;;;5094084;28;20040;-67
2024/01/22 12:06:01;;;;;;;20.95;2.92;;;;;;;;;;5082963;28;20483;-70
2024/01/22 12:08:28;;;;;;;21.75;4.25;;;;;;;;;;5086560;28;20055;-68
2024/01/22 12:11:13;;;;;;;22.95;4.55;;;;;;;;;;5079481;28;20048;-69
2024/01/22 12:13:41;;;;;;;25.67;4.07;;;;;;;;;;5092549;28;20062;-68
2024/01/22 12:16:12;;;;;;;23.52;4.43;;;;;;;;;;5081853;28;20047;-70
2024/01/22 12:18:39;;;;;;;22.80;3.60;;;;;;;;;;5099241;28;20136;-69
2024/01/22 12:21:06;;;;;;;26.45;4.05;;;;;;;;;;5086467;28;20271;-70
2024/01/22 12:23:36;;;;;;;26.95;4.07;;;;;;;;;;5080802;28;20047;-70
2024/01/22 12:26:02;;;;;;;26.58;4.70;;;;;;;;;;5083688;28;20113;-71
2024/01/22 12:28:32;;;;;;;21.05;4.05;;;;;;;;;;5072100;28;20048;-71
2024/01/22 12:31:02;;;;;;;24.10;3.78;;;;;;;;;;5086015;28;20062;-69
2024/01/22 12:33:33;;;;;;;31.48;4.60;;;;;;;;;;5088095;28;20071;-69
2024/01/22 12:36:06;;;;;;;26.50;4.07;;;;;;;;;;5091850;28;20047;-69
2024/01/22 12:38:34;;;;;;;24.92;3.95;;;;;;;;;;5093909;28;20629;-69
2024/01/22 12:41:04;;;;;;;23.52;4.57;;;;;;;;;;5088945;28;20143;-69
2024/01/22 12:43:31;;;;;;;23.60;4.80;;;;;;;;;;5087006;28;20052;-69
2024/01/22 12:46:04;;;;;;;26.52;4.55;;;;;;;;;;5081213;28;20397;-69
2024/01/22 12:48:30;;;;;;;34.97;5.07;;;;;;;;;;5088107;28;20060;-70
2024/01/22 12:50:57;;;;;;;27.63;4.63;;;;;;;;;;5059614;28;20887;-68
2024/01/22 12:53:24;;;;;;;31.67;3.97;;;;;;;;;;5085331;28;20044;-70
2024/01/22 12:55:56;;;;;;;25.52;5.05;;;;;;;;;;5089122;28;20174;-68
2024/01/22 12:58:26;;;;;;;20.85;3.33;;;;;;;;;;5088759;28;20042;-69
2024/01/22 13:00:53;;;;;;;26.17;3.70;;;;;;;;;;5088425;28;20109;-70
2024/01/22 13:03:21;;;;;;;25.48;3.63;;;;;;;;;;5083559;28;20052;-68
2024/01/22 13:05:47;;;;;;;25.88;4.22;;;;;;;;;;5089661;28;20440;-68
2024/01/22 13:08:14;;;;;;;24.63;3.47;;;;;;;;;;5071984;28;20055;-70
2024/01/22 13:10:40;;;;;;;25.27;3.42;;;;;;;;;;5089063;28;20043;-68
2024/01/22 13:13:07;;;;;;;29.10;3.63;;;;;;;;;;5069255;28;20041;-70
2024/01/22 13:15:33;;;;;;;22.52;4.20;;;;;;;;;;5084734;28;20615;-70
2024/01/22 13:18:00;;;;;;;28.42;3.92;;;;;;;;;;5085106;28;20052;-69
2024/01/22 13:20:27;;;;;;;23.60;3.92;;;;;;;;;;5078640;28;20048;-71
2024/01/22 13:22:54;;;;;;;28.17;4.68;;;;;;;;;;5089362;28;20043;-70
2024/01/22 13:25:21;;;;;;;21.98;3.90;;;;;;;;;;5098284;28;20054;-69
2024/01/22 13:27:49;;;;;;;26.98;4.68;;;;;;;;;;5081032;28;20044;-69
2024/01/22 13:30:16;;;;;;;24.87;3.63;;;;;;;;;;5087309;28;20050;-71
2024/01/22 13:32:43;;;;;;;17.65;3.22;;;;;;;;;;5072046;28;20284;-69
2024/01/22 13:35:10;;;;;;;17.50;3.78;;;;;;;;;;5083827;28;20911;-71
2024/01/22 13:37:38;;;;;;;21.90;4.35;;;;;;;;;;5081580;28;20130;-72
2024/01/22 13:40:06;;;;;;;23.23;3.85;;;;;;;;;;5078559;28;20055;-69
2024/01/22 13:42:33;;;;;;;22.67;3.60;;;;;;;;;;5096777;28;20940;-70
2024/01/22 13:44:59;;;;;;;28.25;3.75;;;;;;;;;;5068604;28;20097;-71
2024/01/22 13:47:26;;;;;;;23.65;3.58;;;;;;;;;;5083581;28;20122;-70
2024/01/22 13:50:04;;;;;;;26.02;3.88;;;;;;;;;;5078361;28;20545;-71
2024/01/22 13:52:31;;;;;;;30.15;5.07;;;;;;;;;;5087011;28;20466;-70
2024/01/22 13:55:01;;;;;;;21.27;3.28;;;;;;;;;;5090934;28;20435;-70
2024/01/22 13:57:28;;;;;;;18.77;3.45;;;;;;;;;;5095021;28;20631;-70
2024/01/22 13:59:54;;;;;;;26.15;4.07;;;;;;;;;;5077702;28;20052;-71
2024/01/22 14:02:20;;;;;;;19.67;3.20;;;;;;;;;;5066040;28;20404;-71
2024/01/22 14:04:47;;;;;;;19.65;2.78;;;;;;;;;;5089027;28;20539;-72
2024/01/22 14:07:13;;;;;;;16.30;3.15;;;;;;;;;;5089424;28;20400;-72
2024/01/22 14:09:40;;;;;;;15.18;3.05;;;;;;;;;;5106557;28;20059;-74
2024/01/22 14:12:07;;;;;;;22.80;3.22;;;;;;;;;;5093365;28;20074;-73
2024/01/22 14:14:34;;;;;;;23.48;3.63;;;;;;;;;;5092089;28;20044;-73
2024/01/22 14:17:04;;;;;;;19.90;3.20;;;;;;;;;;5081504;28;20043;-74
2024/01/22 14:19:32;;;;;;;22.10;3.78;;;;;;;;;;5081351;28;20083;-72
2024/01/22 14:21:58;;;;;;;17.25;2.92;;;;;;;;;;5090625;28;20097;-71
2024/01/22 14:24:26;;;;;;;16.35;3.47;;;;;;;;;;5079955;28;20066;-73
2024/01/22 14:26:53;;;;;;;17.35;2.70;;;;;;;;;;5091253;28;20052;-73
2024/01/22 14:29:19;;;;;;;20.25;3.00;;;;;;;;;;5096363;28;20066;-72
2024/01/22 14:31:46;;;;;;;19.27;3.70;;;;;;;;;;5078130;28;20087;-71
2024/01/22 14:34:12;;;;;;;17.73;3.20;;;;;;;;;;5087424;28;20044;-72
2024/01/22 14:36:40;;;;;;;20.17;2.72;;;;;;;;;;5090572;28;20465;-73
2024/01/22 14:39:10;;;;;;;19.45;2.75;;;;;;;;;;5085765;28;20486;-70
2024/01/22 14:41:38;;;;;;;18.70;2.85;;;;;;;;;;5089963;28;20136;-73